Flight Track Log - Related Links

Times and Time Zones

All times are in EDT time to prevent confusion due to time zone crossing. See the GJS3707 flight status page for this flight to view local times or setup timezone preferences in your user account.

Time Position Orientation Groundspeed Altitude Reporting Facility
EDT Latitude Longitude Course Direction KTS MPH feet Rate Location/Type
Sun 10:28:19 PM 41.9667 -87.9500 14° North 168 193 1,700  Level Chicago TRACON
Sun 10:29:19 PM 42.0167 -87.9333 14° North 231 266 3,700 2,100 Climbing Chicago TRACON
Sun 10:30:19 PM 42.0167 -87.8500 90° East 287 330 5,900 2,476 Climbing Chicago TRACON
Sun 10:31:25 PM 41.9833 -87.7500 114° Southeast 285 328 8,900 2,606 Climbing Chicago TRACON
Sun 10:33:14 PM 41.9767 -87.5556 93° East 298 343 13,500 2,435 Climbing Chicago Center
Sun 10:34:15 PM 41.9692 -87.4386 95° East 307 353 15,800 1,967 Climbing Chicago Center
Sun 10:35:16 PM 41.9603 -87.3083 95° East 344 396 17,500 1,854 Climbing Chicago Center
Sun 10:36:18 PM 41.9514 -87.1744 95° East 356 410 19,600 1,561 Climbing Chicago Center
Sun 10:37:19 PM 41.9314 -87.0342 101° East 376 433 20,700 1,033 Climbing Chicago Center
Sun 10:38:20 PM 41.9106 -86.8811 100° East 411 473 21,700 1,033 Climbing Chicago Center
Sun 10:39:21 PM 41.8897 -86.7192 100° East 437 503 22,800 1,366 Climbing Chicago Center
Sun 10:40:23 PM 41.8647 -86.5350 100° East 450 518 24,500 1,659 Climbing Chicago Center
Sun 10:41:24 PM 41.8431 -86.3706 100° East 450 518 26,200 1,426 Climbing Chicago Center
Sun 10:42:25 PM 41.8203 -86.2047 100° East 452 520 27,400 1,082 Climbing Chicago Center
Sun 10:43:26 PM 41.7956 -86.0339 101° East 463 533 28,400 927 Climbing Chicago Center
Sun 10:44:28 PM 41.7719 -85.8606 100° East 469 540 29,300 780 Climbing Chicago Center
Sun 10:45:29 PM 41.7469 -85.6814 101° East 484 557 30,000 885 Climbing Chicago Center
Sun 10:46:30 PM 41.7217 -85.4983 100° East 490 564 31,100 1,180 Climbing Chicago Center
Sun 10:47:31 PM 41.6903 -85.3014 102° East 491 565 32,400 1,279 Climbing Chicago Center
Sun 10:48:32 PM 41.6678 -85.1261 100° East 498 573 33,700 1,073 Climbing Chicago Center
Sun 10:49:34 PM 41.6411 -84.9503 101° East 488 562 34,600 829 Climbing Chicago Center
Sun 10:50:35 PM 41.6142 -84.7722 101° East 488 562 35,400 885 Climbing Chicago Center
Sun 10:51:36 PM 41.5814 -84.5564 101° East 492 566 36,400 787 Climbing Chicago Center
Sun 10:52:37 PM 41.5539 -84.3797 102° East 491 565 37,000 295 Climbing Chicago Center
Sun 10:53:38 PM 41.5264 -84.2006 102° East 491 565 37,000  Level Chicago Center
Sun 10:54:31 PM 41.5053 -84.0700 102° East 491 565 37,000  Level Cleveland Center
Sun 10:55:32 PM 41.4719 -83.8603 102° East 489 563 37,000  Level Cleveland Center
Sun 10:56:33 PM 41.4433 -83.6867 102° East 487 560 37,000  Level Cleveland Center
Sun 10:57:34 PM 41.4164 -83.5175 102° East 476 548 37,000  Level Cleveland Center
Sun 10:58:36 PM 41.3892 -83.3508 102° East 467 537 37,000  Level Cleveland Center
Sun 10:59:37 PM 41.3631 -83.1878 102° East 458 527 37,000  Level Cleveland Center
Sun 11:00:38 PM 41.3344 -83.0258 103° East 450 518 37,000  Level Cleveland Center
Sun 11:01:39 PM 41.3072 -82.8625 102° East 450 518 37,000  Level Cleveland Center
Sun 11:02:40 PM 41.2792 -82.6969 103° East 454 522 37,000  Level Cleveland Center
Sun 11:03:41 PM 41.2503 -82.5306 103° East 455 524 37,000  Level Cleveland Center
Sun 11:04:43 PM 41.2114 -82.3681 108° East 458 527 37,000  Level Cleveland Center
Sun 11:05:44 PM 41.1664 -82.1778 107° East 459 528 37,000  Level Cleveland Center
Sun 11:06:45 PM 41.1289 -82.0181 107° East 463 533 37,000  Level Cleveland Center
Sun 11:07:46 PM 41.0875 -81.8492 108° East 464 534 37,000  Level Cleveland Center
Sun 11:08:47 PM 41.0483 -81.6833 107° East 471 542 37,000  Level Cleveland Center
Sun 11:09:48 PM 41.0075 -81.5164 108° East 474 545 37,000  Level Cleveland Center
Sun 11:10:49 PM 40.9661 -81.3483 108° East 476 548 37,000  Level Cleveland Center
Sun 11:11:50 PM 40.9236 -81.1772 108° East 484 557 37,000  Level Cleveland Center
Sun 11:12:51 PM 40.8811 -81.0100 109° East 492 566 37,000  Level Cleveland Center
Sun 11:13:52 PM 40.8381 -80.8350 108° East 498 573 37,000  Level Cleveland Center
Sun 11:14:53 PM 40.7917 -80.6472 108° East 505 581 37,000  Level Cleveland Center
Sun 11:15:54 PM 40.7469 -80.4703 108° East 505 581 37,000  Level Cleveland Center
Sun 11:16:56 PM 40.7000 -80.2883 109° East 495 570 37,000  Level Cleveland Center
Sun 11:17:57 PM 40.6569 -80.1208 109° East 490 564 37,000  Level Cleveland Center
Sun 11:18:58 PM 40.6097 -79.9353 108° East 486 559 37,000  Level Cleveland Center
Sun 11:19:59 PM 40.5747 -79.7661 105° East 481 554 37,000  Level Cleveland Center
Sun 11:21:00 PM 40.5578 -79.5950 97° East 472 543 37,000  Level Cleveland Center
Sun 11:22:00 PM 40.5386 -79.4258 98° East 471 542 37,000  Level Cleveland Center
Sun 11:23:01 PM 40.5208 -79.2536 98° East 466 536 37,000  Level Cleveland Center
Sun 11:24:02 PM 40.5025 -79.0886 98° East 463 533 37,000  Level Cleveland Center
Sun 11:25:03 PM 40.4850 -78.9228 98° East 463 533 37,000  Level Cleveland Center
Sun 11:26:04 PM 40.4650 -78.7547 99° East 464 534 37,000  Level Cleveland Center
Sun 11:27:05 PM 40.4464 -78.5822 98° East 478 550 37,000  Level Cleveland Center
Sun 11:28:06 PM 40.4261 -78.4072 99° East 487 560 37,000  Level Cleveland Center
Sun 11:29:07 PM 40.4061 -78.2339 99° East 486 559 37,000 -393 Level Cleveland Center
Sun 11:30:08 PM 40.3808 -78.0256 99° East 486 559 36,200 -989 Descending Cleveland Center
Sun 11:30:38 PM 40.3719 -77.9583 100° East 477 549 35,500 -1,600 Descending New Center
Sun 11:31:38 PM 40.3489 -77.7897 100° East 472 543 33,800 -1,800 Descending New Center
Sun 11:32:38 PM 40.3314 -77.6272 98° East 467 537 31,900 -1,400 Descending New Center
Sun 11:33:38 PM 40.3094 -77.4617 100° East 462 532 31,000 -450 Descending New Center
Sun 11:34:38 PM 40.2897 -77.2939 99° East 462 532 31,000 -1,150 Level New Center
Sun 11:35:38 PM 40.2653 -77.1281 101° East 462 532 28,700 -2,600 Descending New Center
Sun 11:36:38 PM 40.2436 -76.9494 99° East 466 536 25,800 -2,500 Descending New Center
Sun 11:37:38 PM 40.2242 -76.8008 100° East 441 507 23,700 -2,150 Descending New Center
Sun 11:38:38 PM 40.2042 -76.6578 100° East 415 478 21,500 -2,150 Descending New Center
Sun 11:39:38 PM 40.1861 -76.5175 100° East 398 458 19,400 -2,100 Descending New Center
Sun 11:40:38 PM 40.1697 -76.3803 99° East 387 445 17,300 -2,000 Descending New Center
Sun 11:41:38 PM 40.1511 -76.2483 100° East 377 434 15,400 -1,800 Descending New Center
Sun 11:42:38 PM 40.1356 -76.1333 100° East 365 420 13,700 -1,800 Descending New Center
Sun 11:43:38 PM 40.1167 -75.9933 100° East 354 407 11,800 -1,750 Descending New Center
Sun 11:44:38 PM 40.0969 -75.8725 102° East 354 407 10,200 -900 Descending New Center
Sun 11:45:38 PM 40.0831 -75.7575 99° East 343 395 10,000 -100 Descending New Center
Sun 11:46:38 PM 40.0742 -75.6211 95° East 343 395 10,000 -400 Level New Center
Sun 11:47:38 PM 40.0697 -75.5258 93° East 313 360 9,200 -1,200 Descending New Center
Sun 11:48:38 PM 40.0658 -75.4144 93° East 283 326 7,600 -1,565 Descending New Center
Sun 11:49:33 PM 40.0667 -75.3167 89° East 272 313 6,200 -1,357 Descending Philadelphia TRACON
Sun 11:50:33 PM 40.0500 -75.2333 105° East 255 293 5,000 -1,182 Descending Philadelphia TRACON
Sun 11:51:45 PM 40.0167 -75.1333 113° Southeast 240 276 3,600 -952 Descending Philadelphia TRACON
Sun 11:52:39 PM 40.0000 -75.0500 105° East 261 300 3,000 -667 Descending Philadelphia TRACON
Sun 11:53:33 PM 39.9500 -75.0167 153° Southeast 248 285 2,400 -450 Descending Philadelphia TRACON
Sun 11:54:39 PM 39.9000 -75.0667 218° Southwest 174 200 2,100 -167 Descending Philadelphia TRACON
Sun 11:55:21 PM 39.9000 -75.1000 270° West 149 171 2,100 -412 Level Philadelphia TRACON
Sun 11:56:21 PM 39.8833 -75.1500 247° West 137 158 1,400 -737 Descending Philadelphia TRACON
Sun 11:57:15 PM 39.8833 -75.1833 270° West 133 153 700 -778 Descending Philadelphia TRACON
Sun 11:59:00 PM 39.8667 -75.2333 247° West  Level FlightAware
Mon 12:06:00 AM 39.8722 -75.2409 247° West  Level Estimated

Login

Don't have an account? Register now (free) for customized features, flight alerts, and more!